TAF and METAR

METAR for Krasnoyarsk Yemelyanovo Airport

UNKL 171100Z 02003MPS 6000 SCT045 23/12 Q1012 R11/CLRD65 NOSIG RMK QFE734
Report created 17. aug 13:00
wind 6 knots from NNE (020°) visibility 6000 meters scattered clouds (~50% cover) at 4500 feet Temperature 23° with dewpoint at 12° (Humidity 49.97%) Pressure 1012 hPa

TAF for Krasnoyarsk Yemelyanovo Airport

TAF UNKL 171048Z 1712/1812 05005G12MPS 5000 FU SCT030CB TEMPO 1712/1803 3100 -TSRA FU BECMG 1714/1716 02003G10MPS TEMPO 1803/1812 3100 -SHRA FU
Report created 17. aug 12:48

between 17. aug 14:00 - 18. aug 14:00

wind 10 knots from NE (050°) with gusts up to 24 knots visibility 5000 meters smoke scattered clouds (~50% cover) at 3000 feet of type cumulonimbus

temporarily between 17. aug 14:00 - 18. aug 05:00

visibility 3100 meters light thunderstorm and rain smoke

becoming between 17. aug 16:00 - 17. aug 18:00

wind 6 knots from NNE (020°) with gusts up to 20 knots

temporarily between 18. aug 05:00 - 18. aug 14:00

visibility 3100 meters light rain showers smoke
Krasnoyarsk Yemelyanovo Airport in Russian Federation at 276m

Latest 5 airports